Time;durP1;ratioP1;P1;durP2;ratioP2;P2;SDS_P1;SDS_P2;PMS_P1;PMS_P2;Temp;Humidity;BMP_temperature;BMP_pressure;BME280_temperature;BME280_humidity;BME280_pressure;Samples;Min_cycle;Max_cycle;Signal;HPM_P1;HPM_P2
2023/06/08 00:02:10;;;;;;;29.77;5.15;;;;;;;;;;5010075;28;20447;-44
2023/06/08 00:04:40;;;;;;;36.72;5.30;;;;;;;;;;5008643;28;20029;-47
2023/06/08 00:07:08;;;;;;;33.80;5.40;;;;;;;;;;5006919;28;20451;-44
2023/06/08 00:09:36;;;;;;;49.30;5.57;;;;;;;;;;5008088;28;20041;-46
2023/06/08 00:12:03;;;;;;;46.25;6.00;;;;;;;;;;5009624;28;20072;-47
2023/06/08 00:14:30;;;;;;;43.55;6.13;;;;;;;;;;5006301;28;20484;-45
2023/06/08 00:16:58;;;;;;;45.55;5.93;;;;;;;;;;5010267;28;20527;-45
2023/06/08 00:19:25;;;;;;;38.42;6.20;;;;;;;;;;5009760;28;20022;-45
2023/06/08 00:21:52;;;;;;;38.72;5.90;;;;;;;;;;5008316;28;20056;-44
2023/06/08 00:24:20;;;;;;;37.95;5.57;;;;;;;;;;5005144;28;20037;-43
2023/06/08 00:26:47;;;;;;;42.63;6.25;;;;;;;;;;5000175;28;20027;-44
2023/06/08 00:29:14;;;;;;;37.90;5.05;;;;;;;;;;5000679;28;20045;-43
2023/06/08 00:31:41;;;;;;;45.30;6.50;;;;;;;;;;5002147;28;20564;-43
2023/06/08 00:34:08;;;;;;;39.35;6.45;;;;;;;;;;5009344;28;20030;-42
2023/06/08 00:36:37;;;;;;;41.40;6.47;;;;;;;;;;5010513;28;20045;-41
2023/06/08 00:39:04;;;;;;;41.50;6.70;;;;;;;;;;5008709;28;20487;-42
2023/06/08 00:41:31;;;;;;;39.55;6.70;;;;;;;;;;5010945;28;20033;-42
2023/06/08 00:43:58;;;;;;;35.78;5.95;;;;;;;;;;5009755;28;20038;-46
2023/06/08 00:46:26;;;;;;;56.97;6.88;;;;;;;;;;5012614;28;20033;-42
2023/06/08 00:48:53;;;;;;;30.35;5.63;;;;;;;;;;5011487;28;20480;-43
2023/06/08 00:51:21;;;;;;;33.30;5.63;;;;;;;;;;5013535;28;20431;-43
2023/06/08 00:53:48;;;;;;;39.75;5.97;;;;;;;;;;5011496;28;20092;-43
2023/06/08 00:56:16;;;;;;;33.25;6.07;;;;;;;;;;5012785;28;20034;-45
2023/06/08 00:58:46;;;;;;;34.55;6.22;;;;;;;;;;5013839;28;20038;-43
2023/06/08 01:01:19;;;;;;;39.38;6.18;;;;;;;;;;5014081;28;20030;-45
2023/06/08 01:03:47;;;;;;;47.38;6.85;;;;;;;;;;5013896;28;20033;-45
2023/06/08 01:06:16;;;;;;;45.30;7.28;;;;;;;;;;5014025;28;20022;-45
2023/06/08 01:09:03;;;;;;;41.03;6.68;;;;;;;;;;5005806;28;20111;-44
2023/06/08 01:11:59;;;;;;;42.40;6.40;;;;;;;;;;4996994;28;20117;-46
2023/06/08 01:14:41;;;;;;;34.42;6.30;;;;;;;;;;4992037;28;20105;-43
2023/06/08 01:17:12;;;;;;;31.83;6.43;;;;;;;;;;4992060;28;20048;-44
2023/06/08 01:19:58;;;;;;;37.25;6.32;;;;;;;;;;4994204;28;20038;-44
2023/06/08 01:22:25;;;;;;;38.65;6.85;;;;;;;;;;4994115;28;20109;-45
2023/06/08 01:24:52;;;;;;;32.83;7.07;;;;;;;;;;4994418;28;20027;-43
2023/06/08 01:27:20;;;;;;;37.50;6.35;;;;;;;;;;4994357;28;20038;-45
2023/06/08 01:29:48;;;;;;;34.35;6.03;;;;;;;;;;4995235;28;20373;-45
2023/06/08 01:32:15;;;;;;;27.65;6.90;;;;;;;;;;4995165;28;20797;-44
2023/06/08 01:34:42;;;;;;;31.70;6.65;;;;;;;;;;5013674;28;20365;-44
2023/06/08 01:37:26;;;;;;;31.42;6.70;;;;;;;;;;5013951;28;20065;-42
2023/06/08 01:39:57;;;;;;;34.75;7.00;;;;;;;;;;5014185;28;20033;-43
2023/06/08 01:42:25;;;;;;;26.13;6.57;;;;;;;;;;5012006;28;20026;-43
2023/06/08 01:45:06;;;;;;;29.58;6.82;;;;;;;;;;5013878;28;20108;-41
2023/06/08 01:47:39;;;;;;;34.95;7.60;;;;;;;;;;5013856;28;20034;-43
2023/06/08 01:50:07;;;;;;;31.88;6.72;;;;;;;;;;5013608;28;20065;-43
2023/06/08 01:52:34;;;;;;;27.58;7.03;;;;;;;;;;5012742;28;20038;-43
2023/06/08 01:55:01;;;;;;;32.08;6.72;;;;;;;;;;5013208;28;20022;-43
2023/06/08 01:57:28;;;;;;;28.30;6.45;;;;;;;;;;5012428;28;20111;-41
2023/06/08 01:59:55;;;;;;;36.10;7.10;;;;;;;;;;5013216;28;20033;-43
2023/06/08 02:02:22;;;;;;;29.40;6.60;;;;;;;;;;4999120;28;20688;-43
2023/06/08 02:04:49;;;;;;;25.15;6.85;;;;;;;;;;5012626;28;20555;-43
2023/06/08 02:07:16;;;;;;;33.15;6.30;;;;;;;;;;5013120;28;20030;-44
2023/06/08 02:09:43;;;;;;;26.02;6.40;;;;;;;;;;5012566;28;20457;-44
2023/06/08 02:12:10;;;;;;;27.65;6.63;;;;;;;;;;5012479;28;20084;-42
2023/06/08 02:14:38;;;;;;;25.30;5.78;;;;;;;;;;4994664;28;20034;-48
2023/06/08 02:17:05;;;;;;;27.45;6.50;;;;;;;;;;5008647;28;20096;-44
2023/06/08 02:19:32;;;;;;;19.95;5.82;;;;;;;;;;5012774;28;20065;-44
2023/06/08 02:22:00;;;;;;;20.23;5.40;;;;;;;;;;5012464;28;20038;-44
2023/06/08 02:24:27;;;;;;;25.45;5.88;;;;;;;;;;5012478;28;20483;-42
2023/06/08 02:26:57;;;;;;;21.00;5.82;;;;;;;;;;5012459;28;20542;-43
2023/06/08 02:29:24;;;;;;;24.88;6.30;;;;;;;;;;5012381;28;20034;-44
2023/06/08 02:31:51;;;;;;;22.75;5.30;;;;;;;;;;5012673;28;20135;-41
2023/06/08 02:34:19;;;;;;;19.98;5.30;;;;;;;;;;5011406;28;20065;-43
2023/06/08 02:36:47;;;;;;;20.17;5.43;;;;;;;;;;5011620;28;20056;-44
2023/06/08 02:39:15;;;;;;;26.42;6.38;;;;;;;;;;5012226;28;20056;-42
2023/06/08 02:41:42;;;;;;;20.60;6.80;;;;;;;;;;5011796;28;20453;-44
2023/06/08 02:44:10;;;;;;;20.58;5.95;;;;;;;;;;5012252;28;20037;-43
2023/06/08 02:46:38;;;;;;;18.05;5.88;;;;;;;;;;5011762;28;20033;-45
2023/06/08 02:49:05;;;;;;;18.92;5.40;;;;;;;;;;5009620;28;20037;-44
2023/06/08 02:51:32;;;;;;;21.60;6.15;;;;;;;;;;5011462;28;20518;-45
2023/06/08 02:54:00;;;;;;;17.35;5.35;;;;;;;;;;5000554;28;20037;-43
2023/06/08 02:56:27;;;;;;;17.58;5.53;;;;;;;;;;4992295;28;20026;-43
2023/06/08 02:58:54;;;;;;;27.20;6.88;;;;;;;;;;4992638;28;20037;-41
2023/06/08 03:01:21;;;;;;;24.35;6.13;;;;;;;;;;4989288;28;20045;-41
2023/06/08 03:03:51;;;;;;;18.77;6.15;;;;;;;;;;4992293;28;20033;-42
2023/06/08 03:06:19;;;;;;;23.38;6.38;;;;;;;;;;4992003;28;20030;-43
2023/06/08 03:08:47;;;;;;;23.67;6.28;;;;;;;;;;4991794;28;20041;-43
2023/06/08 03:11:15;;;;;;;20.25;5.38;;;;;;;;;;4992070;28;20058;-43
2023/06/08 03:13:42;;;;;;;28.65;5.82;;;;;;;;;;4983007;28;20034;-43
2023/06/08 03:16:10;;;;;;;23.15;6.03;;;;;;;;;;4985528;28;20560;-40
2023/06/08 03:18:37;;;;;;;23.83;6.40;;;;;;;;;;4992391;28;20038;-41
2023/06/08 03:21:04;;;;;;;29.02;7.07;;;;;;;;;;4992644;28;20030;-41
2023/06/08 03:23:32;;;;;;;23.80;6.00;;;;;;;;;;4992442;28;20030;-42
2023/06/08 03:25:59;;;;;;;22.70;5.97;;;;;;;;;;4992418;28;20503;-41
2023/06/08 03:28:26;;;;;;;18.25;5.38;;;;;;;;;;4992348;28;20121;-42
2023/06/08 03:30:53;;;;;;;20.75;5.97;;;;;;;;;;4992220;28;20447;-41
2023/06/08 03:33:20;;;;;;;14.15;5.35;;;;;;;;;;4992362;28;20407;-41
2023/06/08 03:35:48;;;;;;;19.08;5.97;;;;;;;;;;4992408;28;20507;-41
2023/06/08 03:38:15;;;;;;;24.55;6.25;;;;;;;;;;4992202;28;20113;-41
2023/06/08 03:40:42;;;;;;;19.90;5.82;;;;;;;;;;4992493;28;20034;-43
2023/06/08 03:43:09;;;;;;;18.05;5.78;;;;;;;;;;4992231;28;20109;-41
2023/06/08 03:45:36;;;;;;;15.88;5.82;;;;;;;;;;4992125;28;20031;-41
2023/06/08 03:48:03;;;;;;;28.50;5.88;;;;;;;;;;4992315;28;20034;-41
2023/06/08 03:50:31;;;;;;;16.38;5.40;;;;;;;;;;4992005;28;20070;-41
2023/06/08 03:52:58;;;;;;;15.65;5.35;;;;;;;;;;4992027;28;20026;-41
2023/06/08 03:55:26;;;;;;;15.88;5.22;;;;;;;;;;4992127;28;20026;-41
2023/06/08 03:57:53;;;;;;;16.95;4.95;;;;;;;;;;4991921;28;20038;-41
2023/06/08 04:00:20;;;;;;;16.40;5.18;;;;;;;;;;4992091;28;20061;-42
2023/06/08 04:02:48;;;;;;;16.35;5.20;;;;;;;;;;4991661;28;20109;-42
2023/06/08 04:05:15;;;;;;;18.50;5.53;;;;;;;;;;4974619;28;20037;-41
2023/06/08 04:07:43;;;;;;;14.32;4.90;;;;;;;;;;4992110;28;20500;-41
2023/06/08 04:10:10;;;;;;;14.18;4.70;;;;;;;;;;4991666;28;20034;-41
2023/06/08 04:12:37;;;;;;;11.90;4.93;;;;;;;;;;4992032;28;20072;-43
2023/06/08 04:15:04;;;;;;;13.90;4.68;;;;;;;;;;4991980;28;20104;-41
2023/06/08 04:17:31;;;;;;;15.48;4.97;;;;;;;;;;4992122;28;20030;-42
2023/06/08 04:19:58;;;;;;;13.63;4.75;;;;;;;;;;4992102;28;20030;-41
2023/06/08 04:22:27;;;;;;;14.38;4.78;;;;;;;;;;4995914;28;20034;-42
2023/06/08 04:24:54;;;;;;;14.68;5.05;;;;;;;;;;4995949;28;20121;-40
2023/06/08 04:27:21;;;;;;;17.33;4.90;;;;;;;;;;4996257;28;20033;-41
2023/06/08 04:29:48;;;;;;;13.57;4.70;;;;;;;;;;4995801;28;20048;-41
2023/06/08 04:32:15;;;;;;;12.20;4.57;;;;;;;;;;4996053;28;20105;-41
2023/06/08 04:34:42;;;;;;;13.40;4.35;;;;;;;;;;4995854;28;20169;-41
2023/06/08 04:37:10;;;;;;;10.98;4.50;;;;;;;;;;4978444;28;20517;-41
2023/06/08 04:39:38;;;;;;;15.40;4.53;;;;;;;;;;4995837;28;20042;-42
2023/06/08 04:42:06;;;;;;;11.30;4.18;;;;;;;;;;4995685;28;20034;-41
2023/06/08 04:44:33;;;;;;;11.80;3.95;;;;;;;;;;4995614;28;20041;-41
2023/06/08 04:47:01;;;;;;;12.80;4.15;;;;;;;;;;4995634;28;20037;-42
2023/06/08 04:49:31;;;;;;;9.23;3.83;;;;;;;;;;4995783;28;20037;-41
2023/06/08 04:52:00;;;;;;;13.27;4.18;;;;;;;;;;4995807;28;20026;-40
2023/06/08 04:54:31;;;;;;;9.77;3.85;;;;;;;;;;4995535;28;20109;-41
2023/06/08 04:56:58;;;;;;;12.27;4.30;;;;;;;;;;4995707;28;20034;-42
2023/06/08 04:59:26;;;;;;;11.13;3.90;;;;;;;;;;4995501;28;20034;-41
2023/06/08 05:01:53;;;;;;;9.13;3.15;;;;;;;;;;4995521;28;20030;-41
2023/06/08 05:04:20;;;;;;;9.38;3.35;;;;;;;;;;4995410;28;20027;-41
2023/06/08 05:06:47;;;;;;;11.13;3.35;;;;;;;;;;4995391;28;20077;-42
2023/06/08 05:09:14;;;;;;;8.18;3.38;;;;;;;;;;4995235;28;20042;-41
2023/06/08 05:11:41;;;;;;;10.07;3.25;;;;;;;;;;4995292;28;20038;-41
2023/06/08 05:14:10;;;;;;;8.27;3.15;;;;;;;;;;4995090;28;20515;-41
2023/06/08 05:16:38;;;;;;;7.30;3.03;;;;;;;;;;4995053;28;20072;-42
2023/06/08 05:19:11;;;;;;;9.25;3.17;;;;;;;;;;4995031;28;20041;-41
2023/06/08 05:21:39;;;;;;;7.60;3.20;;;;;;;;;;5014691;28;20034;-41
2023/06/08 05:24:07;;;;;;;8.82;3.47;;;;;;;;;;5014456;28;20030;-42
2023/06/08 05:26:34;;;;;;;9.05;2.88;;;;;;;;;;5014606;28;20112;-41
2023/06/08 05:29:01;;;;;;;5.78;2.75;;;;;;;;;;5014630;28;20091;-42
2023/06/08 05:31:28;;;;;;;13.10;3.40;;;;;;;;;;5014323;28;20057;-41
2023/06/08 05:33:55;;;;;;;6.93;3.00;;;;;;;;;;5014475;28;20030;-41
2023/06/08 05:36:22;;;;;;;8.65;3.00;;;;;;;;;;5014479;28;20061;-41
2023/06/08 05:38:49;;;;;;;7.45;3.25;;;;;;;;;;5014375;28;20026;-42
2023/06/08 05:41:16;;;;;;;6.80;2.72;;;;;;;;;;5014505;28;20033;-41
2023/06/08 05:43:43;;;;;;;7.82;2.88;;;;;;;;;;5014312;28;20038;-41
2023/06/08 05:46:11;;;;;;;6.03;2.22;;;;;;;;;;4996783;28;20415;-42
2023/06/08 05:48:38;;;;;;;5.72;2.40;;;;;;;;;;5014056;28;20026;-43
2023/06/08 05:51:05;;;;;;;6.22;2.95;;;;;;;;;;5014235;28;20488;-43
2023/06/08 05:53:32;;;;;;;8.35;3.00;;;;;;;;;;5014111;28;20487;-43
2023/06/08 05:55:59;;;;;;;5.50;2.20;;;;;;;;;;5014183;28;20026;-44
2023/06/08 05:58:26;;;;;;;4.88;2.17;;;;;;;;;;5013946;28;20105;-43
2023/06/08 06:00:53;;;;;;;8.32;2.50;;;;;;;;;;5012792;28;20034;-41
2023/06/08 06:03:21;;;;;;;6.45;2.33;;;;;;;;;;4996206;28;20706;-41
2023/06/08 06:05:49;;;;;;;4.47;2.03;;;;;;;;;;5013886;28;20491;-42
2023/06/08 06:08:16;;;;;;;9.13;2.33;;;;;;;;;;5013776;28;20038;-42
2023/06/08 06:10:43;;;;;;;5.43;2.20;;;;;;;;;;5013605;28;20445;-42
2023/06/08 06:13:10;;;;;;;4.45;2.30;;;;;;;;;;5013957;28;20030;-41
2023/06/08 06:15:37;;;;;;;5.80;2.30;;;;;;;;;;5013508;28;20413;-41
2023/06/08 06:18:04;;;;;;;5.05;2.45;;;;;;;;;;5013699;28;20026;-41
2023/06/08 06:20:31;;;;;;;5.32;1.95;;;;;;;;;;5013703;28;20109;-42
2023/06/08 06:22:58;;;;;;;4.82;2.00;;;;;;;;;;5013256;28;20033;-42
2023/06/08 06:25:25;;;;;;;5.78;1.90;;;;;;;;;;5013609;28;20488;-42
2023/06/08 06:27:52;;;;;;;6.93;2.15;;;;;;;;;;4995849;28;20778;-42
2023/06/08 06:30:18;;;;;;;4.40;2.03;;;;;;;;;;5013448;28;20096;-42
2023/06/08 06:32:45;;;;;;;5.82;1.95;;;;;;;;;;5013407;28;20037;-41
2023/06/08 06:35:12;;;;;;;3.95;1.80;;;;;;;;;;5013262;28;20026;-41
2023/06/08 06:37:39;;;;;;;3.85;1.80;;;;;;;;;;5013421;28;20030;-43
2023/06/08 06:40:07;;;;;;;4.80;2.00;;;;;;;;;;5013364;28;20521;-43
2023/06/08 06:42:36;;;;;;;5.28;1.83;;;;;;;;;;5013175;28;20494;-43
2023/06/08 06:45:03;;;;;;;5.60;1.98;;;;;;;;;;5012602;28;20502;-43
2023/06/08 06:47:30;;;;;;;3.75;1.65;;;;;;;;;;5013298;28;20365;-43
2023/06/08 06:49:57;;;;;;;3.80;1.80;;;;;;;;;;5013031;28;20034;-42
2023/06/08 06:52:23;;;;;;;4.20;1.77;;;;;;;;;;5013001;28;20449;-58
2023/06/08 06:54:50;;;;;;;3.00;1.65;;;;;;;;;;5013132;28;20033;-43
2023/06/08 06:57:17;;;;;;;5.85;1.90;;;;;;;;;;5013025;28;20037;-43
2023/06/08 06:59:46;;;;;;;6.15;2.08;;;;;;;;;;5012926;28;20116;-44
2023/06/08 07:02:13;;;;;;;3.22;1.70;;;;;;;;;;5012774;28;20038;-43
2023/06/08 07:04:40;;;;;;;3.33;1.63;;;;;;;;;;5012655;28;20407;-43
2023/06/08 07:07:09;;;;;;;4.97;1.67;;;;;;;;;;5012865;28;20036;-43
2023/06/08 07:09:37;;;;;;;5.05;1.90;;;;;;;;;;5011255;28;20057;-42
2023/06/08 07:12:05;;;;;;;6.28;1.83;;;;;;;;;;5009912;28;20530;-43
2023/06/08 07:14:32;;;;;;;3.67;1.98;;;;;;;;;;5012402;28;20034;-43
2023/06/08 07:16:59;;;;;;;3.65;1.80;;;;;;;;;;5012479;28;20053;-44
2023/06/08 07:19:26;;;;;;;3.53;1.63;;;;;;;;;;5012632;28;20056;-43
2023/06/08 07:21:54;;;;;;;3.38;1.65;;;;;;;;;;5012576;28;20038;-43
2023/06/08 07:24:21;;;;;;;3.45;1.60;;;;;;;;;;4994733;28;20045;-43
2023/06/08 07:26:48;;;;;;;5.40;1.63;;;;;;;;;;5012392;28;20030;-43
2023/06/08 07:29:15;;;;;;;4.15;1.83;;;;;;;;;;5012467;28;20042;-43
2023/06/08 07:31:42;;;;;;;4.28;1.60;;;;;;;;;;5012292;28;20116;-43
2023/06/08 07:34:09;;;;;;;2.58;1.48;;;;;;;;;;5012354;28;20029;-43
2023/06/08 07:36:36;;;;;;;3.30;1.20;;;;;;;;;;4994645;28;20116;-43
2023/06/08 07:39:03;;;;;;;4.68;1.58;;;;;;;;;;5012319;28;20040;-43
2023/06/08 07:41:31;;;;;;;3.72;1.70;;;;;;;;;;5012221;28;20030;-43
2023/06/08 07:43:58;;;;;;;5.05;1.73;;;;;;;;;;5012208;28;20395;-43
2023/06/08 07:46:25;;;;;;;3.67;1.38;;;;;;;;;;5012169;28;20029;-43
2023/06/08 07:48:52;;;;;;;5.30;1.58;;;;;;;;;;5012095;28;20022;-43
2023/06/08 07:51:19;;;;;;;3.17;1.52;;;;;;;;;;4994399;28;20072;-43
2023/06/08 07:53:46;;;;;;;2.92;1.27;;;;;;;;;;5011765;28;20049;-42
2023/06/08 07:56:13;;;;;;;2.92;1.20;;;;;;;;;;5011997;28;20026;-43
2023/06/08 07:58:40;;;;;;;2.65;1.20;;;;;;;;;;5012070;28;20030;-41
2023/06/08 08:01:07;;;;;;;2.42;1.45;;;;;;;;;;5011921;28;20400;-41
2023/06/08 08:03:38;;;;;;;3.17;1.40;;;;;;;;;;5011911;28;20030;-43
2023/06/08 08:06:05;;;;;;;3.67;1.27;;;;;;;;;;5011891;28;20029;-42
2023/06/08 08:08:32;;;;;;;4.05;1.63;;;;;;;;;;5011883;28;20480;-42
2023/06/08 08:10:59;;;;;;;4.10;1.40;;;;;;;;;;5011892;28;20040;-41
2023/06/08 08:13:26;;;;;;;2.72;1.40;;;;;;;;;;5011788;28;20045;-42
2023/06/08 08:15:53;;;;;;;3.38;1.27;;;;;;;;;;5011628;28;20057;-41
2023/06/08 08:18:20;;;;;;;4.70;1.50;;;;;;;;;;5011771;28;20030;-42
2023/06/08 08:20:47;;;;;;;5.70;1.20;;;;;;;;;;4994067;28;20036;-41
2023/06/08 08:23:14;;;;;;;3.30;1.60;;;;;;;;;;5011771;28;20065;-41
2023/06/08 08:25:41;;;;;;;1.88;1.20;;;;;;;;;;5011738;28;20029;-43
2023/06/08 08:28:08;;;;;;;1.80;1.15;;;;;;;;;;5011725;28;20032;-44
2023/06/08 08:30:35;;;;;;;2.75;1.23;;;;;;;;;;5011633;28;20030;-41
2023/06/08 08:33:02;;;;;;;2.75;1.30;;;;;;;;;;5011428;28;20058;-43
2023/06/08 08:35:31;;;;;;;3.35;1.33;;;;;;;;;;5011674;28;20049;-42
2023/06/08 08:37:58;;;;;;;1.95;1.20;;;;;;;;;;5011490;28;20041;-41
2023/06/08 08:40:25;;;;;;;3.75;1.58;;;;;;;;;;5011687;28;20135;-41
2023/06/08 08:43:11;;;;;;;3.13;1.33;;;;;;;;;;5011554;28;20030;-43
2023/06/08 08:45:42;;;;;;;3.08;1.20;;;;;;;;;;5011444;28;20026;-41
2023/06/08 08:48:12;;;;;;;2.75;1.20;;;;;;;;;;5011480;28;20034;-42
2023/06/08 08:50:41;;;;;;;2.38;1.13;;;;;;;;;;5011541;28;20562;-43
2023/06/08 08:53:09;;;;;;;2.17;1.30;;;;;;;;;;5011306;28;20517;-41
2023/06/08 08:55:37;;;;;;;3.70;1.20;;;;;;;;;;5011462;28;20398;-41
2023/06/08 08:58:05;;;;;;;3.70;1.20;;;;;;;;;;5011336;28;20038;-41
2023/06/08 09:00:33;;;;;;;2.17;1.27;;;;;;;;;;5011470;28;20395;-42
2023/06/08 09:03:00;;;;;;;3.03;1.48;;;;;;;;;;5011366;28;20069;-41
2023/06/08 09:05:27;;;;;;;2.55;1.25;;;;;;;;;;5011375;28;20476;-42
2023/06/08 09:07:57;;;;;;;2.78;1.20;;;;;;;;;;5013903;28;20034;-42
2023/06/08 09:10:25;;;;;;;2.22;1.27;;;;;;;;;;5014898;28;20041;-41
2023/06/08 09:12:52;;;;;;;2.05;1.20;;;;;;;;;;5014902;28;20399;-42
2023/06/08 09:15:33;;;;;;;4.20;1.20;;;;;;;;;;5014862;28;20042;-41
2023/06/08 09:18:02;;;;;;;3.28;1.08;;;;;;;;;;5014593;28;20555;-41
2023/06/08 09:20:29;;;;;;;4.75;1.40;;;;;;;;;;4997180;28;20030;-41
2023/06/08 09:22:57;;;;;;;3.75;1.35;;;;;;;;;;5014595;28;20044;-44
2023/06/08 09:25:38;;;;;;;1.95;1.10;;;;;;;;;;5014568;28;20458;-41
2023/06/08 09:28:22;;;;;;;3.45;1.05;;;;;;;;;;5014785;28;20033;-42
2023/06/08 09:30:49;;;;;;;2.90;1.27;;;;;;;;;;5014554;28;20512;-42
2023/06/08 09:33:25;;;;;;;4.43;1.13;;;;;;;;;;5014586;28;20030;-41
2023/06/08 09:35:59;;;;;;;1.50;1.02;;;;;;;;;;5014309;28;20028;-43
2023/06/08 09:38:30;;;;;;;1.92;1.00;;;;;;;;;;5014598;28;20040;-42
2023/06/08 09:41:15;;;;;;;4.90;1.20;;;;;;;;;;5014458;28;20030;-43
2023/06/08 09:43:45;;;;;;;2.22;1.05;;;;;;;;;;5014324;28;20030;-42
2023/06/08 09:46:16;;;;;;;2.58;1.17;;;;;;;;;;5014311;28;20037;-43
2023/06/08 09:48:56;;;;;;;1.88;1.20;;;;;;;;;;5014205;28;20034;-43
2023/06/08 09:51:23;;;;;;;2.42;1.15;;;;;;;;;;5014288;28;20042;-41
2023/06/08 09:53:55;;;;;;;1.98;0.82;;;;;;;;;;5014256;28;20640;-41
2023/06/08 09:56:26;;;;;;;2.15;1.23;;;;;;;;;;5014126;28;20069;-41
2023/06/08 09:58:58;;;;;;;2.85;1.20;;;;;;;;;;5014163;28;20038;-42
2023/06/08 10:01:54;;;;;;;1.77;1.17;;;;;;;;;;5013994;28;20033;-42
2023/06/08 10:04:24;;;;;;;1.73;1.00;;;;;;;;;;5001436;28;20038;-42
2023/06/08 10:07:03;;;;;;;1.30;1.00;;;;;;;;;;5014017;28;20094;-42
2023/06/08 10:09:31;;;;;;;3.38;1.20;;;;;;;;;;4996076;28;20477;-42
2023/06/08 10:11:58;;;;;;;3.55;1.50;;;;;;;;;;5013846;28;20046;-42
2023/06/08 10:14:26;;;;;;;4.07;1.38;;;;;;;;;;5013827;28;20037;-42
2023/06/08 10:16:56;;;;;;;1.67;1.25;;;;;;;;;;5013646;28;20141;-44
2023/06/08 10:19:24;;;;;;;2.40;1.27;;;;;;;;;;5012701;28;20061;-41
2023/06/08 10:21:55;;;;;;;2.30;1.27;;;;;;;;;;5013436;28;20033;-42
2023/06/08 10:24:22;;;;;;;2.67;1.40;;;;;;;;;;5013586;28;20025;-42
2023/06/08 10:26:50;;;;;;;3.17;1.67;;;;;;;;;;5013681;28;20050;-42
2023/06/08 10:29:17;;;;;;;3.10;1.63;;;;;;;;;;5013571;28;20022;-41
2023/06/08 10:31:48;;;;;;;1.77;1.20;;;;;;;;;;4996251;28;20103;-43
2023/06/08 10:34:17;;;;;;;2.08;1.35;;;;;;;;;;5013428;28;20030;-44
2023/06/08 10:36:44;;;;;;;2.15;1.20;;;;;;;;;;5013487;28;20134;-43
2023/06/08 10:39:14;;;;;;;4.70;1.55;;;;;;;;;;5019301;28;20032;-42
2023/06/08 10:41:44;;;;;;;3.00;1.40;;;;;;;;;;5016676;28;20389;-43
2023/06/08 10:44:29;;;;;;;2.88;1.30;;;;;;;;;;5013235;28;20084;-44
2023/06/08 10:46:59;;;;;;;2.42;1.27;;;;;;;;;;5013082;28;20506;-43
2023/06/08 10:49:49;;;;;;;2.30;1.40;;;;;;;;;;5012992;28;20520;-43
2023/06/08 10:52:21;;;;;;;3.08;1.38;;;;;;;;;;5005365;28;20046;-41
2023/06/08 10:54:57;;;;;;;2.33;1.50;;;;;;;;;;5012886;28;20483;-42
2023/06/08 10:57:41;;;;;;;4.25;1.98;;;;;;;;;;5013039;28;20030;-42
2023/06/08 11:00:28;;;;;;;2.65;1.75;;;;;;;;;;5012897;28;20037;-43
2023/06/08 11:02:57;;;;;;;2.30;1.60;;;;;;;;;;5012679;28;20041;-42
2023/06/08 11:05:24;;;;;;;4.55;1.92;;;;;;;;;;5012881;28;20087;-43
2023/06/08 11:07:56;;;;;;;2.28;1.67;;;;;;;;;;5012792;28;20453;-41
2023/06/08 11:10:23;;;;;;;3.33;1.70;;;;;;;;;;5012662;28;20066;-42
2023/06/08 11:12:50;;;;;;;4.57;2.03;;;;;;;;;;5012706;28;20758;-44
2023/06/08 11:15:18;;;;;;;3.58;1.67;;;;;;;;;;5012568;28;20404;-41
2023/06/08 11:17:50;;;;;;;30.15;2.17;;;;;;;;;;5012465;28;20117;-42
2023/06/08 11:20:19;;;;;;;3.15;1.98;;;;;;;;;;5012420;28;20065;-45
2023/06/08 11:22:47;;;;;;;4.20;1.80;;;;;;;;;;5008791;28;20046;-43
2023/06/08 11:25:14;;;;;;;2.92;1.60;;;;;;;;;;5012536;28;20392;-44
2023/06/08 11:27:44;;;;;;;5.97;1.90;;;;;;;;;;5012512;28;20061;-44
2023/06/08 11:30:21;;;;;;;3.83;1.63;;;;;;;;;;4999457;28;20486;-44
2023/06/08 11:32:49;;;;;;;3.45;1.80;;;;;;;;;;5011257;28;20141;-43
2023/06/08 11:35:16;;;;;;;2.95;1.70;;;;;;;;;;5010384;28;20060;-43
2023/06/08 11:37:44;;;;;;;2.60;1.60;;;;;;;;;;5011627;28;20484;-43
2023/06/08 11:40:12;;;;;;;4.43;1.90;;;;;;;;;;5011574;28;20365;-44
2023/06/08 11:42:39;;;;;;;3.65;1.80;;;;;;;;;;5011582;28;20480;-43
2023/06/08 11:45:07;;;;;;;2.85;1.67;;;;;;;;;;5011435;28;20037;-44
2023/06/08 11:47:35;;;;;;;5.53;1.83;;;;;;;;;;5011453;28;20037;-43
2023/06/08 11:50:03;;;;;;;2.72;1.58;;;;;;;;;;5010087;28;20038;-42
2023/06/08 11:52:34;;;;;;;1.70;1.48;;;;;;;;;;5008650;28;20037;-41
2023/06/08 11:55:15;;;;;;;3.15;1.58;;;;;;;;;;5011501;28;20030;-44
2023/06/08 11:57:47;;;;;;;3.00;1.75;;;;;;;;;;5011668;28;20109;-43
2023/06/08 12:00:19;;;;;;;3.90;1.73;;;;;;;;;;5012017;28;20073;-43
2023/06/08 12:02:50;;;;;;;5.30;2.03;;;;;;;;;;5011760;28;20057;-46
2023/06/08 12:05:23;;;;;;;3.30;1.60;;;;;;;;;;5011966;28;20387;-45
2023/06/08 12:07:59;;;;;;;2.17;1.60;;;;;;;;;;5011367;28;20072;-42
2023/06/08 12:10:33;;;;;;;4.18;1.70;;;;;;;;;;5011637;28;20092;-44
2023/06/08 12:13:08;;;;;;;2.22;1.67;;;;;;;;;;5011867;28;20034;-42
2023/06/08 12:15:41;;;;;;;2.63;1.65;;;;;;;;;;5011628;28;20104;-42
2023/06/08 12:18:08;;;;;;;2.65;1.60;;;;;;;;;;5011817;28;20026;-43
2023/06/08 12:20:35;;;;;;;3.15;1.80;;;;;;;;;;5011180;28;20032;-43
2023/06/08 12:23:03;;;;;;;4.10;2.00;;;;;;;;;;5011149;28;20053;-44
2023/06/08 12:25:33;;;;;;;2.75;1.52;;;;;;;;;;5010898;28;20033;-40
2023/06/08 12:28:00;;;;;;;4.25;1.70;;;;;;;;;;5011010;28;20022;-41
2023/06/08 12:30:28;;;;;;;4.45;1.50;;;;;;;;;;5008392;28;20076;-42
2023/06/08 12:32:55;;;;;;;3.47;1.60;;;;;;;;;;5010965;28;20037;-43
2023/06/08 12:35:23;;;;;;;2.72;1.58;;;;;;;;;;5011076;28;20045;-42
2023/06/08 12:37:51;;;;;;;2.92;1.65;;;;;;;;;;5010877;28;20574;-42
2023/06/08 12:40:23;;;;;;;3.92;1.83;;;;;;;;;;5010942;28;20036;-44
2023/06/08 12:42:50;;;;;;;23.07;1.70;;;;;;;;;;5011136;28;20165;-42
2023/06/08 12:45:18;;;;;;;3.17;1.60;;;;;;;;;;5015662;28;20272;-44
2023/06/08 12:47:45;;;;;;;3.97;1.50;;;;;;;;;;5015506;28;20037;-44
2023/06/08 12:50:13;;;;;;;2.95;1.70;;;;;;;;;;5015134;28;20183;-42
2023/06/08 12:52:41;;;;;;;2.75;1.70;;;;;;;;;;5015251;28;20511;-43
2023/06/08 12:55:08;;;;;;;3.60;1.42;;;;;;;;;;5015223;28;20037;-42
2023/06/08 12:57:36;;;;;;;3.70;1.60;;;;;;;;;;5014456;28;20396;-42
2023/06/08 13:00:04;;;;;;;3.97;1.50;;;;;;;;;;5014497;28;20450;-42
2023/06/08 13:02:32;;;;;;;2.45;1.63;;;;;;;;;;5013143;28;20433;-42
2023/06/08 13:04:59;;;;;;;6.10;1.52;;;;;;;;;;5014512;28;20116;-43
2023/06/08 13:07:26;;;;;;;6.18;1.80;;;;;;;;;;5014476;28;20026;-42
2023/06/08 13:09:53;;;;;;;3.45;1.38;;;;;;;;;;5011148;28;20124;-44
2023/06/08 13:12:21;;;;;;;7.63;2.00;;;;;;;;;;5011389;28;20026;-42
2023/06/08 13:14:48;;;;;;;2.85;1.40;;;;;;;;;;5014404;28;20088;-44
2023/06/08 13:17:15;;;;;;;2.95;1.75;;;;;;;;;;5014863;28;20104;-44
2023/06/08 13:19:45;;;;;;;3.20;1.83;;;;;;;;;;5014825;28;20026;-44
2023/06/08 13:22:12;;;;;;;3.08;1.88;;;;;;;;;;5014233;28;20096;-44
2023/06/08 13:24:40;;;;;;;5.53;1.80;;;;;;;;;;5013418;28;20018;-42
2023/06/08 13:27:07;;;;;;;3.67;1.60;;;;;;;;;;5010515;28;20504;-44
2023/06/08 13:29:34;;;;;;;3.58;1.67;;;;;;;;;;5013423;28;20088;-44
2023/06/08 13:32:02;;;;;;;3.33;1.58;;;;;;;;;;4995413;28;20030;-44
2023/06/08 13:34:30;;;;;;;4.50;1.63;;;;;;;;;;5013558;28;20117;-43
2023/06/08 13:36:57;;;;;;;3.17;1.35;;;;;;;;;;5012169;28;20034;-42
2023/06/08 13:39:25;;;;;;;10.95;1.80;;;;;;;;;;5013702;28;20153;-44
2023/06/08 13:41:52;;;;;;;5.53;1.80;;;;;;;;;;5012574;28;20034;-43
2023/06/08 13:44:19;;;;;;;3.95;1.67;;;;;;;;;;5013276;28;21530;-42
2023/06/08 13:46:47;;;;;;;4.22;1.70;;;;;;;;;;5010491;28;20034;-44
2023/06/08 13:49:14;;;;;;;5.43;1.52;;;;;;;;;;5013151;28;20068;-48
2023/06/08 13:51:42;;;;;;;4.03;1.58;;;;;;;;;;5012750;28;20521;-46
2023/06/08 13:54:09;;;;;;;4.50;1.45;;;;;;;;;;5013458;28;20499;-47
2023/06/08 13:56:36;;;;;;;5.40;1.35;;;;;;;;;;5011115;28;20029;-47
2023/06/08 13:59:04;;;;;;;3.40;1.70;;;;;;;;;;5004601;28;20105;-47
2023/06/08 14:01:31;;;;;;;3.35;1.42;;;;;;;;;;5006239;28;20026;-48
2023/06/08 14:03:58;;;;;;;3.17;1.30;;;;;;;;;;5013038;28;20101;-46
2023/06/08 14:06:25;;;;;;;6.60;1.60;;;;;;;;;;5010485;28;20021;-48
2023/06/08 14:08:52;;;;;;;4.35;1.30;;;;;;;;;;5013339;28;20029;-47
2023/06/08 14:11:20;;;;;;;5.68;1.25;;;;;;;;;;5007265;28;20096;-47
2023/06/08 14:13:47;;;;;;;5.43;2.00;;;;;;;;;;5012886;28;20144;-48
2023/06/08 14:16:15;;;;;;;4.38;1.95;;;;;;;;;;5010095;28;20046;-46
2023/06/08 14:18:45;;;;;;;3.35;2.03;;;;;;;;;;5013126;28;20038;-47
2023/06/08 14:21:12;;;;;;;6.80;1.70;;;;;;;;;;5010080;28;20164;-45
2023/06/08 14:23:39;;;;;;;5.97;1.98;;;;;;;;;;5013045;28;20033;-47
2023/06/08 14:26:06;;;;;;;4.82;2.00;;;;;;;;;;5013141;28;20030;-45
2023/06/08 14:28:35;;;;;;;9.52;2.33;;;;;;;;;;4997634;28;20049;-46
2023/06/08 14:31:02;;;;;;;8.93;2.47;;;;;;;;;;5000063;28;20092;-46
2023/06/08 14:33:29;;;;;;;7.63;2.08;;;;;;;;;;5012797;28;20576;-45
2023/06/08 14:35:56;;;;;;;11.48;2.35;;;;;;;;;;5013012;28;20030;-44
2023/06/08 14:38:23;;;;;;;11.10;2.38;;;;;;;;;;5012646;28;20557;-49
2023/06/08 14:40:50;;;;;;;10.38;2.30;;;;;;;;;;5008628;28;20037;-45
2023/06/08 14:43:18;;;;;;;6.88;1.98;;;;;;;;;;5012517;28;20041;-45
2023/06/08 14:45:45;;;;;;;12.85;2.42;;;;;;;;;;5009488;28;20041;-46
2023/06/08 14:48:12;;;;;;;5.97;2.25;;;;;;;;;;5012698;28;20109;-47